Time;durP1;ratioP1;P1;durP2;ratioP2;P2;SDS_P1;SDS_P2;PMS_P1;PMS_P2;Temp;Humidity;BMP_temperature;BMP_pressure;BME280_temperature;BME280_humidity;BME280_pressure;Samples;Min_cycle;Max_cycle;Signal;HPM_P1;HPM_P2
2022/06/02 00:00:10;;;;;;;3.40;3.20;;;11.60;99.90;;;;;;5043053;28;20556;-52
2022/06/02 00:02:50;;;;;;;3.47;3.37;;;11.60;99.90;;;;;;5041011;28;20449;-52
2022/06/02 00:05:23;;;;;;;3.93;3.73;;;11.60;99.90;;;;;;5041636;28;20516;-50
2022/06/02 00:08:03;;;;;;;4.50;4.00;;;11.60;99.90;;;;;;5043760;28;20488;-53
2022/06/02 00:10:40;;;;;;;4.40;3.83;;;11.60;99.90;;;;;;5044186;28;20545;-51
2022/06/02 00:13:20;;;;;;;3.63;3.43;;;11.70;99.90;;;;;;5041677;28;20573;-53
2022/06/02 00:15:53;;;;;;;4.00;3.80;;;11.70;99.90;;;;;;5041254;28;20990;-52
2022/06/02 00:18:31;;;;;;;4.47;3.87;;;11.70;99.90;;;;;;5042339;28;20462;-53
2022/06/02 00:21:03;;;;;;;3.50;3.20;;;11.70;99.90;;;;;;5039578;28;20462;-51
2022/06/02 00:23:46;;;;;;;4.30;3.90;;;11.70;99.90;;;;;;5038989;28;20560;-51
2022/06/02 00:26:27;;;;;;;3.80;3.60;;;11.70;99.90;;;;;;5040551;28;20540;-52
2022/06/02 00:29:05;;;;;;;4.10;3.80;;;11.70;99.90;;;;;;5043358;28;20871;-53
2022/06/02 00:31:39;;;;;;;3.80;3.60;;;11.70;99.90;;;;;;5033226;28;20489;-52
2022/06/02 00:34:16;;;;;;;3.60;3.30;;;11.80;99.90;;;;;;5035948;28;20466;-52
2022/06/02 00:36:52;;;;;;;4.00;3.80;;;11.70;99.90;;;;;;5037464;28;20596;-52
2022/06/02 00:39:20;;;;;;;3.30;3.10;;;11.80;99.90;;;;;;5043075;28;20553;-52
2022/06/02 00:41:59;;;;;;;3.97;3.67;;;11.70;99.90;;;;;;5036311;28;20478;-51
2022/06/02 00:44:34;;;;;;;3.80;3.60;;;11.70;99.90;;;;;;5041140;28;20564;-52
2022/06/02 00:47:06;;;;;;;4.50;3.60;;;11.70;99.90;;;;;;5038342;28;20568;-51
2022/06/02 00:49:48;;;;;;;3.70;3.53;;;11.80;99.90;;;;;;5040297;28;21044;-52
2022/06/02 00:52:28;;;;;;;3.50;3.30;;;11.70;99.90;;;;;;5040129;28;20484;-51
2022/06/02 00:57:59;;;;;;;3.57;3.37;;;11.70;99.90;;;;;;5037265;28;20579;-50
2022/06/02 01:00:36;;;;;;;3.80;3.60;;;11.60;99.90;;;;;;5043005;28;20473;-51
2022/06/02 01:03:08;;;;;;;3.73;3.53;;;11.60;99.90;;;;;;5044559;28;20582;-51
2022/06/02 01:05:54;;;;;;;3.80;3.60;;;11.60;99.90;;;;;;5051589;28;20525;-53
2022/06/02 01:08:31;;;;;;;3.70;3.40;;;11.60;99.90;;;;;;5048076;28;20545;-52
2022/06/02 01:11:13;;;;;;;3.17;3.07;;;11.50;99.90;;;;;;5043799;28;20993;-53
2022/06/02 01:14:01;;;;;;;3.97;3.70;;;11.50;99.90;;;;;;5042923;28;20458;-52
2022/06/02 01:16:34;;;;;;;7.23;4.20;;;11.50;99.90;;;;;;5045992;28;20568;-52
2022/06/02 01:19:18;;;;;;;3.80;3.60;;;11.50;99.90;;;;;;5043014;28;20501;-53
2022/06/02 01:22:04;;;;;;;3.97;3.60;;;11.50;99.90;;;;;;5043766;28;20608;-52
2022/06/02 01:24:55;;;;;;;3.57;3.37;;;11.50;99.90;;;;;;5045114;28;20462;-51
2022/06/02 01:27:52;;;;;;;3.60;3.07;;;11.40;99.90;;;;;;5043193;28;20572;-52
2022/06/02 01:30:34;;;;;;;3.73;3.53;;;11.40;99.90;;;;;;5043555;28;21042;-52
2022/06/02 01:33:09;;;;;;;3.60;3.40;;;11.40;99.90;;;;;;5046384;28;20576;-52
2022/06/02 01:35:45;;;;;;;3.77;3.57;;;11.40;99.90;;;;;;5051096;28;20488;-52
2022/06/02 01:38:18;;;;;;;3.17;2.93;;;11.40;99.90;;;;;;5047048;28;20504;-52
2022/06/02 01:40:56;;;;;;;2.90;2.80;;;11.40;99.90;;;;;;5046472;28;20488;-52
2022/06/02 01:43:31;;;;;;;5.40;3.03;;;11.40;99.90;;;;;;5044337;28;20833;-52
2022/06/02 01:46:14;;;;;;;8.73;3.37;;;11.30;99.90;;;;;;5043497;28;20457;-51
2022/06/02 01:48:48;;;;;;;2.83;2.73;;;11.30;99.90;;;;;;5043903;28;20469;-52
2022/06/02 01:51:23;;;;;;;3.03;2.90;;;11.30;99.90;;;;;;5042232;28;20544;-52
2022/06/02 01:54:00;;;;;;;3.00;2.90;;;11.20;99.90;;;;;;5046055;28;20552;-53
2022/06/02 01:56:39;;;;;;;2.63;2.43;;;11.20;99.90;;;;;;5045518;28;20492;-52
2022/06/02 01:59:19;;;;;;;2.70;2.60;;;11.20;99.90;;;;;;5043131;28;20598;-52
2022/06/02 02:01:56;;;;;;;2.60;2.50;;;11.10;99.90;;;;;;5047560;28;20509;-52
2022/06/02 02:04:47;;;;;;;4.20;2.80;;;11.10;99.90;;;;;;5042230;28;20490;-52
2022/06/02 02:07:22;;;;;;;2.80;2.60;;;11.10;99.90;;;;;;5045317;28;20572;-51
2022/06/02 02:09:58;;;;;;;3.57;3.37;;;11.00;99.90;;;;;;5043108;28;21351;-52
2022/06/02 02:12:36;;;;;;;2.90;2.80;;;11.00;99.90;;;;;;5048512;28;21082;-52
2022/06/02 02:15:17;;;;;;;3.40;3.00;;;11.00;99.90;;;;;;5044282;28;20453;-52
2022/06/02 02:18:03;;;;;;;2.47;2.37;;;10.90;99.90;;;;;;5049300;28;20919;-52
2022/06/02 02:20:35;;;;;;;2.37;2.27;;;10.90;99.90;;;;;;5044453;28;20560;-58
2022/06/02 02:23:08;;;;;;;3.10;3.00;;;10.80;99.90;;;;;;5045042;28;20449;-52
2022/06/02 02:25:43;;;;;;;3.13;2.93;;;10.80;99.90;;;;;;5049052;28;21092;-52
2022/06/02 02:28:17;;;;;;;2.97;2.70;;;10.70;99.90;;;;;;5046254;28;20604;-52
2022/06/02 02:30:54;;;;;;;2.80;2.70;;;10.70;99.90;;;;;;5042924;28;21064;-52
2022/06/02 02:33:31;;;;;;;3.10;2.90;;;10.60;99.90;;;;;;5050798;28;20568;-52
2022/06/02 02:36:07;;;;;;;3.40;3.10;;;10.60;99.90;;;;;;5052303;28;20485;-51
2022/06/02 02:38:44;;;;;;;3.30;3.07;;;10.60;99.90;;;;;;5043003;28;20492;-52
2022/06/02 02:41:17;;;;;;;3.00;2.90;;;10.50;98.00;;;;;;5045806;28;20493;-51
2022/06/02 02:43:55;;;;;;;3.40;3.20;;;10.50;99.50;;;;;;5050188;28;20500;-53
2022/06/02 02:46:31;;;;;;;3.10;2.90;;;10.40;96.20;;;;;;5049262;28;20501;-52
2022/06/02 02:49:05;;;;;;;3.60;3.30;;;10.40;94.30;;;;;;5048963;28;21002;-52
2022/06/02 02:51:43;;;;;;;3.37;3.20;;;10.30;93.20;;;;;;5042311;28;20549;-52
2022/06/02 02:54:21;;;;;;;3.60;3.40;;;10.30;90.40;;;;;;5042978;28;20457;-51
2022/06/02 02:56:55;;;;;;;3.30;3.20;;;10.20;86.00;;;;;;5042311;28;20492;-51
2022/06/02 02:59:31;;;;;;;3.23;3.00;;;10.20;82.60;;;;;;5051058;28;20482;-52
2022/06/02 03:02:06;;;;;;;3.13;3.03;;;10.20;76.10;;;;;;5049017;28;20497;-53
2022/06/02 03:04:48;;;;;;;3.50;3.30;;;10.20;73.80;;;;;;5043238;28;20561;-53
2022/06/02 03:07:14;;;;;;;3.60;3.40;;;10.20;75.50;;;;;;5043510;28;20569;-53
2022/06/02 03:09:49;;;;;;;3.50;3.30;;;10.20;81.10;;;;;;5042050;28;20561;-51
2022/06/02 03:12:21;;;;;;;3.73;3.43;;;10.30;82.60;;;;;;5040670;28;21055;-53
2022/06/02 03:15:15;;;;;;;3.93;3.70;;;10.30;80.50;;;;;;5043007;28;21063;-52
2022/06/02 03:17:51;;;;;;;3.30;3.10;;;10.30;75.20;;;;;;5043207;28;20481;-53
2022/06/02 03:20:26;;;;;;;3.20;3.10;;;10.20;76.70;;;;;;5043914;28;20458;-52
2022/06/02 03:23:08;;;;;;;3.60;3.40;;;10.20;81.40;;;;;;5042824;28;20982;-52
2022/06/02 03:25:39;;;;;;;3.30;3.10;;;10.20;82.40;;;;;;5042057;28;20552;-51
2022/06/02 03:28:19;;;;;;;4.10;3.80;;;10.20;80.30;;;;;;5041135;28;20470;-53
2022/06/02 03:30:51;;;;;;;3.77;3.57;;;10.20;78.30;;;;;;5041953;28;20508;-53
2022/06/02 03:33:31;;;;;;;3.33;3.13;;;10.20;72.80;;;;;;5043757;28;20576;-51
2022/06/02 03:36:09;;;;;;;3.40;3.10;;;10.20;74.10;;;;;;5045840;28;21082;-52
2022/06/02 03:38:57;;;;;;;4.90;3.40;;;10.20;74.00;;;;;;5042930;28;20468;-52
2022/06/02 03:41:36;;;;;;;3.40;3.20;;;10.30;74.90;;;;;;5043278;28;20566;-54
2022/06/02 03:44:15;;;;;;;3.77;3.47;;;10.30;79.10;;;;;;5042933;28;20553;-53
2022/06/02 03:46:52;;;;;;;5.90;3.67;;;10.30;79.90;;;;;;5038197;28;20576;-53
2022/06/02 03:49:33;;;;;;;3.20;2.87;;;10.40;85.00;;;;;;5041448;28;20560;-54
2022/06/02 03:52:16;;;;;;;3.93;3.40;;;10.40;83.70;;;;;;5041334;28;20454;-52
2022/06/02 03:55:03;;;;;;;7.17;3.50;;;10.50;88.10;;;;;;5041129;28;21095;-53
2022/06/02 03:57:43;;;;;;;4.40;3.40;;;10.50;89.20;;;;;;5040669;28;20574;-52
2022/06/02 04:00:19;;;;;;;3.13;2.93;;;10.50;96.10;;;;;;5041530;28;20549;-53
2022/06/02 04:02:50;;;;;;;3.53;3.33;;;10.50;99.90;;;;;;5041339;28;21030;-53
2022/06/02 04:05:39;;;;;;;7.47;3.40;;;10.50;99.90;;;;;;5045120;28;20485;-53
2022/06/02 04:08:36;;;;;;;3.60;3.50;;;10.60;97.10;;;;;;5039093;28;20657;-53
2022/06/02 04:11:14;;;;;;;3.87;3.67;;;10.60;99.90;;;;;;5041716;28;20498;-53
2022/06/02 04:14:01;;;;;;;9.73;3.83;;;10.60;99.90;;;;;;5046549;28;20492;-53
2022/06/02 04:16:54;;;;;;;3.93;3.73;;;10.60;99.90;;;;;;5040413;28;20476;-52
2022/06/02 04:22:33;;;;;;;3.80;3.30;;;10.60;99.90;;;;;;5039842;28;20469;-52
2022/06/02 04:25:15;;;;;;;9.03;4.07;;;10.70;99.90;;;;;;5043963;28;20552;-53
2022/06/02 04:27:49;;;;;;;3.87;3.57;;;10.70;99.90;;;;;;5043146;28;20869;-53
2022/06/02 04:30:21;;;;;;;3.90;3.70;;;10.70;99.90;;;;;;5042696;28;20494;-53
2022/06/02 04:32:57;;;;;;;3.50;3.30;;;10.70;99.90;;;;;;5039647;28;20496;-52
2022/06/02 04:35:38;;;;;;;3.63;3.43;;;10.80;99.90;;;;;;5040934;28;20485;-52
2022/06/02 04:38:16;;;;;;;3.97;3.67;;;10.80;99.90;;;;;;5044704;28;20512;-52
2022/06/02 04:40:54;;;;;;;3.93;3.43;;;10.90;99.90;;;;;;5040737;28;20462;-53
2022/06/02 04:43:28;;;;;;;3.70;3.40;;;10.90;99.90;;;;;;5038584;28;20485;-52
2022/06/02 04:46:15;;;;;;;4.50;3.40;;;11.00;99.90;;;;;;5044500;28;20591;-51
2022/06/02 04:48:49;;;;;;;4.13;3.93;;;11.00;99.90;;;;;;5043898;28;20909;-52
2022/06/02 04:51:24;;;;;;;5.37;3.80;;;11.00;99.90;;;;;;5038792;28;20557;-53
2022/06/02 04:53:58;;;;;;;4.37;3.97;;;11.10;99.90;;;;;;5042277;28;20501;-53
2022/06/02 04:56:32;;;;;;;4.60;4.20;;;11.10;99.90;;;;;;5041107;28;20524;-50
2022/06/02 04:59:07;;;;;;;5.37;4.97;;;11.20;99.90;;;;;;5042348;28;20549;-51
2022/06/02 05:01:44;;;;;;;4.53;4.23;;;11.20;99.90;;;;;;5041687;28;20465;-51
2022/06/02 05:04:20;;;;;;;6.80;4.57;;;11.20;99.90;;;;;;5041142;28;20541;-51
2022/06/02 05:06:52;;;;;;;7.90;7.13;;;11.20;99.90;;;;;;5035488;28;20815;-50
2022/06/02 05:09:23;;;;;;;5.70;5.30;;;11.20;99.90;;;;;;5043851;28;20454;-50
2022/06/02 05:12:02;;;;;;;5.70;5.30;;;11.30;99.90;;;;;;5047576;28;20524;-52
2022/06/02 05:14:33;;;;;;;6.20;5.70;;;11.30;99.90;;;;;;5045374;28;20498;-52
2022/06/02 05:17:15;;;;;;;7.20;5.90;;;11.40;99.90;;;;;;5041255;28;20482;-51
2022/06/02 05:20:15;;;;;;;9.50;5.60;;;11.50;99.90;;;;;;5042132;28;20457;-50
2022/06/02 05:23:10;;;;;;;7.03;5.43;;;11.50;99.90;;;;;;5039382;28;20472;-50
2022/06/02 05:26:30;;;;;;;6.13;5.73;;;11.50;99.90;;;;;;5045602;28;20576;-50
2022/06/02 05:29:32;;;;;;;5.70;5.40;;;11.50;99.90;;;;;;5006536;28;21027;-51
2022/06/02 05:32:47;;;;;;;6.33;5.70;;;11.50;99.90;;;;;;5041418;28;20904;-51
2022/06/02 05:35:43;;;;;;;7.30;6.60;;;11.60;99.90;;;;;;5044189;28;20500;-50
2022/06/02 05:38:39;;;;;;;5.83;5.43;;;11.60;99.90;;;;;;5043673;28;20485;-49
2022/06/02 05:41:17;;;;;;;7.43;5.90;;;11.70;99.90;;;;;;5045808;28;20488;-51
2022/06/02 05:43:56;;;;;;;6.80;5.93;;;11.80;99.90;;;;;;5048552;28;20555;-51
2022/06/02 05:46:35;;;;;;;7.10;6.47;;;11.80;99.90;;;;;;5044811;28;20588;-50
2022/06/02 05:49:16;;;;;;;7.17;6.53;;;11.90;99.90;;;;;;5047725;28;20496;-51
2022/06/02 05:51:55;;;;;;;6.97;6.47;;;11.90;99.90;;;;;;5046939;28;20489;-50
2022/06/02 05:54:34;;;;;;;8.70;7.07;;;12.00;99.90;;;;;;5053262;28;20572;-50
2022/06/02 05:57:13;;;;;;;9.13;8.30;;;12.00;99.90;;;;;;5049581;28;20509;-50
2022/06/02 06:00:00;;;;;;;8.57;7.87;;;12.00;99.90;;;;;;5051988;28;20999;-51
2022/06/02 06:02:56;;;;;;;8.60;7.80;;;12.00;99.90;;;;;;5044864;28;20496;-50
2022/06/02 06:05:28;;;;;;;9.60;8.80;;;12.10;99.90;;;;;;5051242;28;20486;-50
2022/06/02 06:08:15;;;;;;;8.57;7.73;;;12.10;99.90;;;;;;5053002;28;20516;-51
2022/06/02 06:10:54;;;;;;;8.27;7.57;;;12.10;99.90;;;;;;5047489;28;20453;-50
2022/06/02 06:13:42;;;;;;;8.67;7.97;;;12.20;99.90;;;;;;5047840;28;20510;-51
2022/06/02 06:16:15;;;;;;;9.73;8.83;;;12.20;99.90;;;;;;5040832;28;20527;-51
2022/06/02 06:18:56;;;;;;;8.50;7.80;;;12.20;99.90;;;;;;5051116;28;20482;-52
2022/06/02 06:21:34;;;;;;;10.23;9.30;;;12.20;99.90;;;;;;5046885;28;20495;-51
2022/06/02 06:24:24;;;;;;;8.63;7.83;;;12.30;99.90;;;;;;5053620;28;20477;-50
2022/06/02 06:27:00;;;;;;;9.60;8.73;;;12.40;99.90;;;;;;5052881;28;20528;-53
2022/06/02 06:29:43;;;;;;;9.53;8.57;;;12.50;99.90;;;;;;5053728;28;20476;-50
2022/06/02 06:32:20;;;;;;;11.13;10.03;;;12.50;99.90;;;;;;5047518;28;20466;-50
2022/06/02 06:34:54;;;;;;;9.10;8.30;;;12.60;99.90;;;;;;5047782;28;20489;-52
2022/06/02 06:37:43;;;;;;;12.70;9.10;;;12.70;99.90;;;;;;5049325;28;20487;-51
2022/06/02 06:40:22;;;;;;;10.57;9.50;;;12.70;99.90;;;;;;5047660;28;20474;-51
2022/06/02 06:43:03;;;;;;;9.17;8.47;;;12.70;99.90;;;;;;5049583;28;20465;-50
2022/06/02 06:45:36;;;;;;;9.13;8.27;;;12.70;99.90;;;;;;5048427;28;20466;-51
2022/06/02 06:48:09;;;;;;;9.37;8.63;;;12.70;99.90;;;;;;5051818;28;20528;-51
2022/06/02 06:50:43;;;;;;;14.40;8.90;;;12.70;99.90;;;;;;5051588;28;20877;-51
2022/06/02 06:53:20;;;;;;;12.23;7.73;;;12.80;99.90;;;;;;5050694;28;20457;-51
2022/06/02 06:55:54;;;;;;;9.10;7.67;;;12.80;99.90;;;;;;5053423;28;20532;-51
2022/06/02 06:58:32;;;;;;;9.30;7.70;;;12.90;99.90;;;;;;5051714;28;20494;-53
2022/06/02 07:01:07;;;;;;;19.70;7.50;;;13.10;99.90;;;;;;5046505;28;20516;-53
2022/06/02 07:03:42;;;;;;;7.70;7.10;;;13.20;99.90;;;;;;5047459;28;20508;-53
2022/06/02 07:06:15;;;;;;;15.00;11.63;;;13.30;99.90;;;;;;5051137;28;20496;-53
2022/06/02 07:08:48;;;;;;;8.33;7.53;;;13.50;99.90;;;;;;5051198;28;20468;-53
2022/06/02 07:14:14;;;;;;;11.33;7.23;;;13.50;99.90;;;;;;5051877;28;20954;-53
2022/06/02 07:16:47;;;;;;;8.97;6.90;;;13.60;99.90;;;;;;5050466;28;20567;-53
2022/06/02 07:19:24;;;;;;;16.37;8.33;;;13.60;99.90;;;;;;5050830;28;20882;-53
2022/06/02 07:21:56;;;;;;;7.57;6.87;;;13.60;99.90;;;;;;5049920;28;20504;-53
2022/06/02 07:24:35;;;;;;;8.20;7.40;;;13.70;99.90;;;;;;5048662;28;20975;-53
2022/06/02 07:27:08;;;;;;;8.40;7.67;;;13.60;99.90;;;;;;5051030;28;20521;-53
2022/06/02 07:29:56;;;;;;;7.03;6.33;;;13.50;99.90;;;;;;5048208;28;20545;-53
2022/06/02 07:33:03;;;;;;;8.67;6.87;;;13.40;99.90;;;;;;5048406;28;20497;-53
2022/06/02 07:35:51;;;;;;;9.40;6.30;;;13.40;99.90;;;;;;5052261;28;21017;-53
2022/06/02 07:38:42;;;;;;;7.20;6.50;;;13.40;99.90;;;;;;5051166;28;20527;-53
2022/06/02 07:41:23;;;;;;;5.20;4.57;;;13.50;99.90;;;;;;5048310;28;20469;-52
2022/06/02 07:44:14;;;;;;;6.93;3.70;;;13.40;25.50;;;;;;5051586;28;20936;-53
2022/06/02 07:47:02;;;;;;;8.50;4.40;;;13.40;41.10;;;;;;5051047;28;20469;-53
2022/06/02 07:49:41;;;;;;;5.23;4.30;;;13.50;37.90;;;;;;5047787;28;20536;-53
2022/06/02 07:52:17;;;;;;;7.03;5.07;;;13.60;29.30;;;;;;5049556;28;20520;-53
2022/06/02 07:54:58;;;;;;;5.03;4.53;;;13.60;31.90;;;;;;5050573;28;20481;-53
2022/06/02 07:57:34;;;;;;;5.10;4.80;;;13.70;32.30;;;;;;5050564;28;20559;-53
2022/06/02 08:00:13;;;;;;;8.77;4.93;;;13.90;31.00;;;;;;5048876;28;20465;-53
2022/06/02 08:03:08;;;;;;;6.60;4.60;;;14.00;38.90;;;;;;5049881;28;20468;-53
2022/06/02 08:05:41;;;;;;;4.97;4.57;;;14.10;41.70;;;;;;5038862;28;20481;-53
2022/06/02 08:08:16;;;;;;;9.00;4.40;;;14.10;56.20;;;;;;5049132;28;20572;-52
2022/06/02 08:10:59;;;;;;;3.83;3.47;;;14.20;68.90;;;;;;5049558;28;20465;-53
2022/06/02 08:13:35;;;;;;;4.90;3.70;;;14.40;70.40;;;;;;5047406;28;20458;-54
2022/06/02 08:16:11;;;;;;;5.93;3.20;;;14.50;65.90;;;;;;5046906;28;20512;-53
2022/06/02 08:18:52;;;;;;;5.50;3.87;;;14.60;68.10;;;;;;5049714;28;20457;-53
2022/06/02 08:21:25;;;;;;;6.23;3.67;;;14.70;71.00;;;;;;5049733;28;21122;-52
2022/06/02 08:24:19;;;;;;;3.50;3.20;;;14.90;82.90;;;;;;5049038;28;20458;-53
2022/06/02 08:26:57;;;;;;;3.23;3.03;;;15.00;81.40;;;;;;5044893;28;20540;-53
2022/06/02 08:29:36;;;;;;;4.50;2.90;;;14.90;99.90;;;;;;5049402;28;20882;-53
2022/06/02 08:32:21;;;;;;;5.53;2.53;;;14.90;99.90;;;;;;5048123;28;20516;-52
2022/06/02 08:34:57;;;;;;;3.90;2.50;;;14.90;99.90;;;;;;5051203;28;20527;-53
2022/06/02 08:37:34;;;;;;;2.60;2.30;;;15.00;99.90;;;;;;5048910;28;20481;-52
2022/06/02 08:40:20;;;;;;;3.23;2.70;;;15.20;99.90;;;;;;5040588;28;20486;-53
2022/06/02 08:43:22;;;;;;;9.43;2.50;;;15.30;99.90;;;;;;5044344;28;20461;-53
2022/06/02 08:46:07;;;;;;;5.50;2.33;;;15.30;99.90;;;;;;5046219;28;20523;-53
2022/06/02 08:48:57;;;;;;;3.23;2.63;;;15.40;99.90;;;;;;5047348;28;20461;-52
2022/06/02 08:51:50;;;;;;;3.40;2.10;;;15.30;99.90;;;;;;5047488;28;20704;-53
2022/06/02 08:54:59;;;;;;;3.87;2.60;;;15.40;99.90;;;;;;5049972;28;20477;-53
2022/06/02 08:57:53;;;;;;;2.70;2.30;;;15.40;99.90;;;;;;5050229;28;20485;-54
2022/06/02 09:00:27;;;;;;;2.63;2.43;;;15.40;99.90;;;;;;5048508;28;20466;-53
2022/06/02 09:03:32;;;;;;;3.60;2.90;;;15.40;99.90;;;;;;5042952;28;20596;-53
2022/06/02 09:06:36;;;;;;;5.03;2.17;;;15.30;99.90;;;;;;5046260;28;20500;-52
2022/06/02 09:09:35;;;;;;;11.80;1.77;;;15.40;99.90;;;;;;5045021;28;20454;-53
2022/06/02 09:12:26;;;;;;;5.13;2.10;;;15.70;99.90;;;;;;5048652;28;20461;-54
2022/06/02 09:15:29;;;;;;;2.20;2.10;;;16.00;99.90;;;;;;5120619;22;20557;-50
2022/06/02 09:18:12;;;;;;;2.23;2.03;;;16.00;99.90;;;;;;5020233;28;20478;-51
2022/06/02 09:20:48;;;;;;;2.13;2.03;;;15.80;99.90;;;;;;5030011;28;20455;-51
2022/06/02 09:23:36;;;;;;;2.60;2.17;;;15.70;99.90;;;;;;5030268;28;20481;-51
2022/06/02 09:26:20;;;;;;;3.97;1.90;;;15.80;99.90;;;;;;5032949;28;20476;-51
2022/06/02 09:29:03;;;;;;;2.10;2.00;;;16.00;99.90;;;;;;5032183;28;20462;-50
2022/06/02 09:31:59;;;;;;;2.53;1.90;;;16.10;99.90;;;;;;5018144;28;20509;-51
2022/06/02 09:34:54;;;;;;;6.63;1.80;;;16.10;99.90;;;;;;5036393;28;20557;-50
2022/06/02 09:37:54;;;;;;;1.77;1.50;;;16.10;99.90;;;;;;5030021;28;20516;-50
2022/06/02 09:40:35;;;;;;;3.10;1.90;;;16.20;99.90;;;;;;5033461;28;20517;-50
2022/06/02 09:43:34;;;;;;;1.57;1.47;;;16.30;99.90;;;;;;5026855;28;20459;-51
2022/06/02 09:46:30;;;;;;;3.33;1.90;;;16.50;99.90;;;;;;5032793;28;20960;-51
2022/06/02 09:49:13;;;;;;;2.03;1.90;;;16.60;99.90;;;;;;5004272;28;20495;-51
2022/06/02 09:51:53;;;;;;;5.33;1.90;;;16.70;99.90;;;;;;5042715;28;20450;-50
2022/06/02 09:54:53;;;;;;;2.50;1.70;;;16.80;99.90;;;;;;5030844;28;20532;-51
2022/06/02 09:57:59;;;;;;;5.63;2.00;;;16.90;99.90;;;;;;5033737;28;20470;-50
2022/06/02 10:00:47;;;;;;;3.33;2.10;;;17.00;99.90;;;;;;5028438;28;20459;-50
2022/06/02 10:03:38;;;;;;;1.80;1.53;;;17.20;99.90;;;;;;4990049;28;20482;-51
2022/06/02 10:06:21;;;;;;;2.50;1.27;;;17.20;99.90;;;;;;5033315;28;20439;-50
2022/06/02 10:09:06;;;;;;;4.47;1.70;;;17.30;99.90;;;;;;5030962;28;21007;-50
2022/06/02 10:11:42;;;;;;;2.93;1.37;;;17.50;99.90;;;;;;5029798;28;20462;-51
2022/06/02 10:14:55;;;;;;;4.90;1.80;;;17.70;99.90;;;;;;5031630;28;20462;-52
2022/06/02 10:17:36;;;;;;;2.80;1.60;;;17.80;99.90;;;;;;4949998;28;20565;-51
2022/06/02 10:20:23;;;;;;;4.07;1.80;;;17.80;99.90;;;;;;5030305;28;20981;-50
2022/06/02 10:23:12;;;;;;;2.93;1.70;;;17.90;99.90;;;;;;5030880;28;20980;-51
2022/06/02 10:25:53;;;;;;;3.47;1.83;;;17.80;99.90;;;;;;5026825;28;20451;-51
2022/06/02 10:28:46;;;;;;;5.53;1.70;;;17.80;99.90;;;;;;5032610;28;20482;-51
2022/06/02 10:32:15;;;;;;;1.43;1.37;;;17.80;99.90;;;;;;5032266;28;20493;-51
2022/06/02 10:35:15;;;;;;;1.73;1.60;;;17.80;99.90;;;;;;4952006;28;21030;-51
2022/06/02 10:37:57;;;;;;;1.40;1.30;;;18.00;99.90;;;;;;4957767;28;20536;-51
2022/06/02 10:40:44;;;;;;;1.63;1.17;;;17.60;99.90;;;;;;5019592;28;20512;-51
2022/06/02 10:43:34;;;;;;;3.03;1.93;;;17.40;99.90;;;;;;5032233;28;20485;-50
2022/06/02 10:46:45;;;;;;;2.87;1.80;;;17.20;99.90;;;;;;5026643;28;20500;-50
2022/06/02 10:49:25;;;;;;;4.20;2.40;;;17.20;99.90;;;;;;5030243;28;20480;-50
2022/06/02 10:52:31;;;;;;;6.63;1.60;;;17.50;99.90;;;;;;5030199;28;20473;-51
2022/06/02 10:55:33;;;;;;;9.20;2.20;;;17.50;99.90;;;;;;5031294;28;20482;-51
2022/06/02 10:58:33;;;;;;;6.00;1.70;;;17.40;99.90;;;;;;5031069;28;20474;-52
2022/06/02 11:01:39;;;;;;;2.00;1.40;;;17.40;99.90;;;;;;5001324;28;20459;-51
2022/06/02 11:04:58;;;;;;;3.53;1.40;;;17.60;99.90;;;;;;5029486;28;20551;-51
2022/06/02 11:08:05;;;;;;;3.73;1.33;;;17.70;99.90;;;;;;5031063;28;20897;-50
2022/06/02 11:10:50;;;;;;;3.37;1.37;;;18.10;99.90;;;;;;5014355;28;20452;-50
2022/06/02 11:13:52;;;;;;;2.00;1.50;;;18.10;99.90;;;;;;5029332;28;20508;-51
2022/06/02 11:16:48;;;;;;;5.10;1.27;;;17.90;99.90;;;;;;4989681;28;20533;-51
2022/06/02 11:19:56;;;;;;;1.43;1.23;;;18.00;99.90;;;;;;5030953;28;20462;-51
2022/06/02 11:22:56;;;;;;;1.40;1.30;;;17.80;99.90;;;;;;5028905;28;20509;-50
2022/06/02 11:25:55;;;;;;;2.53;1.13;;;17.60;99.90;;;;;;5026631;28;20451;-51
2022/06/02 11:29:04;;;;;;;1.30;1.20;;;17.90;99.90;;;;;;5012832;28;20933;-50
2022/06/02 11:32:00;;;;;;;2.80;1.30;;;18.20;99.90;;;;;;5029804;28;20458;-53
2022/06/02 11:34:54;;;;;;;1.43;1.33;;;18.40;99.90;;;;;;5031105;28;20463;-53
2022/06/02 11:38:04;;;;;;;2.40;1.10;;;18.50;99.90;;;;;;5028067;28;20481;-54
2022/06/02 11:40:46;;;;;;;1.27;1.10;;;18.70;99.90;;;;;;5026819;28;20533;-53
2022/06/02 11:43:16;;;;;;;1.43;1.33;;;18.80;99.90;;;;;;5030767;28;20524;-54
2022/06/02 11:46:23;;;;;;;1.27;1.17;;;18.80;99.90;;;;;;5030906;28;20454;-53
2022/06/02 11:49:21;;;;;;;3.17;1.20;;;18.70;99.90;;;;;;5028301;28;20470;-52
2022/06/02 11:52:14;;;;;;;1.53;1.30;;;18.90;99.90;;;;;;5024009;28;20521;-54
2022/06/02 11:55:17;;;;;;;1.20;1.13;;;18.90;99.90;;;;;;5024390;28;21286;-55
2022/06/02 11:57:58;;;;;;;1.00;1.00;;;18.90;99.90;;;;;;4997331;28;20468;-52
2022/06/02 12:00:55;;;;;;;5.40;1.00;;;19.10;99.90;;;;;;5023287;28;20560;-53
2022/06/02 12:03:53;;;;;;;3.70;0.97;;;19.20;99.90;;;;;;5030644;28;20890;-52
2022/06/02 12:07:01;;;;;;;1.83;1.27;;;19.20;99.90;;;;;;5029829;28;20528;-54
2022/06/02 12:10:02;;;;;;;1.80;1.17;;;19.30;99.90;;;;;;5028332;28;20960;-53
2022/06/02 12:12:55;;;;;;;2.30;1.20;;;19.40;99.90;;;;;;5027827;28;20458;-53
2022/06/02 12:15:42;;;;;;;4.13;1.47;;;19.00;99.90;;;;;;5027219;28;21073;-54
2022/06/02 12:18:20;;;;;;;7.80;1.47;;;18.90;99.90;;;;;;5030820;28;20544;-54
2022/06/02 12:21:34;;;;;;;8.03;1.53;;;18.70;99.90;;;;;;5030713;28;20462;-54
2022/06/02 12:24:29;;;;;;;5.30;1.40;;;18.90;99.90;;;;;;5028384;28;20524;-53
2022/06/02 12:27:20;;;;;;;1.90;1.27;;;18.80;99.90;;;;;;5022859;28;20865;-54
2022/06/02 12:30:03;;;;;;;1.30;1.20;;;18.50;99.90;;;;;;5029582;28;20843;-54
2022/06/02 12:32:59;;;;;;;2.83;1.37;;;18.50;99.90;;;;;;5027467;28;20462;-54
2022/06/02 12:35:53;;;;;;;2.57;1.37;;;18.60;99.90;;;;;;5028741;28;20479;-52
2022/06/02 12:38:46;;;;;;;1.30;1.20;;;18.80;99.90;;;;;;5030482;28;21038;-53
2022/06/02 12:41:35;;;;;;;7.63;1.30;;;18.90;99.90;;;;;;5029696;28;20520;-54
2022/06/02 12:44:31;;;;;;;2.83;1.30;;;19.00;99.90;;;;;;5027057;28;20450;-53
2022/06/02 12:47:47;;;;;;;2.57;1.10;;;19.20;99.90;;;;;;5023703;28;20471;-54
2022/06/02 12:50:36;;;;;;;10.50;1.53;;;19.10;99.90;;;;;;5028705;28;20501;-55
2022/06/02 12:53:55;;;;;;;2.13;1.70;;;19.20;99.90;;;;;;5028821;28;20462;-53
2022/06/02 12:56:55;;;;;;;3.13;1.40;;;19.10;99.90;;;;;;5029748;28;20487;-54
2022/06/02 13:00:13;;;;;;;2.20;1.57;;;19.30;99.90;;;;;;5032220;28;20471;-52
2022/06/02 13:03:25;;;;;;;1.00;1.00;;;19.50;99.90;;;;;;5029383;28;20469;-52
2022/06/02 13:06:15;;;;;;;5.63;1.27;;;19.60;99.90;;;;;;5030239;28;20516;-52
2022/06/02 13:09:09;;;;;;;4.83;1.40;;;19.50;99.90;;;;;;5035076;28;20489;-52
2022/06/02 13:12:03;;;;;;;2.40;1.50;;;19.60;99.90;;;;;;5030141;28;20462;-53
2022/06/02 13:15:00;;;;;;;1.67;1.07;;;19.40;99.90;;;;;;5028030;28;20463;-53
2022/06/02 13:17:41;;;;;;;8.43;1.30;;;19.20;99.90;;;;;;5030697;28;20482;-53
2022/06/02 13:20:51;;;;;;;1.90;1.23;;;19.00;99.90;;;;;;5032082;28;20459;-53
2022/06/02 13:23:52;;;;;;;9.17;1.07;;;18.70;99.90;;;;;;4970718;28;20937;-53
2022/06/02 13:26:47;;;;;;;5.67;1.43;;;18.60;99.90;;;;;;5011209;28;20471;-53
2022/06/02 13:29:57;;;;;;;1.87;1.77;;;18.50;99.90;;;;;;5034843;28;20442;-52
2022/06/02 13:32:56;;;;;;;1.70;1.40;;;18.30;99.90;;;;;;5042007;28;20475;-53
2022/06/02 13:36:01;;;;;;;1.97;1.33;;;18.10;99.90;;;;;;5034934;28;20498;-53
2022/06/02 13:39:08;;;;;;;1.07;0.90;;;18.10;99.90;;;;;;5033834;28;20463;-52
2022/06/02 13:41:55;;;;;;;1.43;1.33;;;18.20;99.90;;;;;;5029957;28;20825;-52
2022/06/02 13:44:47;;;;;;;2.53;1.27;;;18.20;99.90;;;;;;5034960;28;20442;-53
2022/06/02 13:48:04;;;;;;;5.20;0.90;;;18.20;99.90;;;;;;5032393;28;20536;-53
2022/06/02 13:51:01;;;;;;;1.23;1.10;;;18.20;99.90;;;;;;5034397;28;20446;-56
2022/06/02 14:00:09;;;;;;;5.80;1.43;;;18.50;99.90;;;;;;5014846;28;20450;-53
2022/06/02 14:03:07;;;;;;;7.13;1.40;;;19.00;99.90;;;;;;5013918;28;20474;-54
2022/06/02 14:06:06;;;;;;;3.50;1.33;;;19.30;99.90;;;;;;5031625;28;20875;-54
2022/06/02 14:08:57;;;;;;;11.00;1.43;;;19.20;99.90;;;;;;5016872;28;20469;-52
2022/06/02 14:11:41;;;;;;;3.17;1.20;;;19.00;99.90;;;;;;5031774;28;20455;-53
2022/06/02 14:14:44;;;;;;;1.57;1.03;;;18.90;99.90;;;;;;5032887;28;20545;-53
2022/06/02 14:17:22;;;;;;;6.20;1.20;;;18.80;99.90;;;;;;5029537;28;20478;-52
2022/06/02 14:20:05;;;;;;;1.07;0.80;;;18.80;99.90;;;;;;5030802;28;20846;-52
2022/06/02 14:22:42;;;;;;;3.23;1.20;;;18.70;99.90;;;;;;5029315;28;20554;-54
2022/06/02 14:25:19;;;;;;;7.53;1.60;;;18.80;99.90;;;;;;5031149;28;20924;-52
2022/06/02 14:28:09;;;;;;;2.73;1.00;;;18.70;99.90;;;;;;5028130;28;20482;-52
2022/06/02 14:30:42;;;;;;;5.13;1.20;;;18.60;99.90;;;;;;5027732;28;20514;-53
2022/06/02 14:33:14;;;;;;;0.80;0.80;;;18.40;99.90;;;;;;5035162;28;20435;-53